Time;durP1;ratioP1;P1;durP2;ratioP2;P2;SDS_P1;SDS_P2;PMS_P1;PMS_P2;Temp;Humidity;BMP_temperature;BMP_pressure;BME280_temperature;BME280_humidity;BME280_pressure;Samples;Min_cycle;Max_cycle;Signal;HPM_P1;HPM_P2
2022/12/12 00:01:39;;;;;;;12.45;7.32;;;0.80;99.90;;;;;;5033013;28;20133;-70
2022/12/12 00:04:05;;;;;;;11.85;6.78;;;0.80;99.90;;;;;;5012819;28;20079;-69
2022/12/12 00:06:32;;;;;;;15.10;8.55;;;0.80;99.90;;;;;;5011864;28;20038;-69
2022/12/12 00:08:58;;;;;;;12.32;6.90;;;0.70;99.90;;;;;;5009247;28;20615;-69
2022/12/12 00:11:25;;;;;;;14.48;8.05;;;0.70;99.90;;;;;;5062350;28;20075;-69
2022/12/12 00:13:51;;;;;;;12.38;6.57;;;0.70;99.90;;;;;;5006829;28;20045;-70
2022/12/12 00:16:17;;;;;;;13.35;7.20;;;0.70;99.90;;;;;;5008033;28;20049;-69
2022/12/12 00:18:44;;;;;;;14.20;7.85;;;0.70;99.90;;;;;;5014758;28;20054;-69
2022/12/12 00:21:16;;;;;;;15.07;8.63;;;0.70;99.90;;;;;;5020364;28;20058;-69
2022/12/12 00:23:42;;;;;;;13.23;7.50;;;0.30;99.90;;;;;;5086999;28;20053;-69
2022/12/12 00:26:20;;;;;;;15.50;8.23;;;0.70;99.90;;;;;;5013719;28;20046;-69
2022/12/12 00:28:47;;;;;;;13.02;6.97;;;0.70;99.90;;;;;;5011445;28;20550;-69
2022/12/12 00:31:14;;;;;;;15.23;8.25;;;0.70;99.90;;;;;;5008255;28;20046;-69
2022/12/12 00:33:40;;;;;;;16.02;8.35;;;0.70;99.90;;;;;;5015414;28;20733;-69
2022/12/12 00:36:09;;;;;;;13.40;7.60;;;0.70;99.90;;;;;;4990374;28;20074;-69
2022/12/12 00:38:35;;;;;;;13.77;6.85;;;0.70;99.90;;;;;;5027901;28;20065;-69
2022/12/12 00:41:01;;;;;;;13.48;8.27;;;0.70;99.90;;;;;;5052564;28;20940;-69
2022/12/12 00:43:27;;;;;;;14.05;7.35;;;0.70;99.90;;;;;;5005560;28;20045;-69
2022/12/12 00:45:52;;;;;;;12.95;7.55;;;0.70;99.90;;;;;;5096591;28;20052;-69
2022/12/12 00:48:18;;;;;;;14.93;7.93;;;0.70;99.90;;;;;;5057893;28;20047;-69
2022/12/12 00:50:44;;;;;;;13.65;6.95;;;0.80;99.90;;;;;;5102138;28;20399;-69
2022/12/12 00:53:12;;;;;;;13.48;7.32;;;0.80;99.90;;;;;;5030026;28;20054;-69
2022/12/12 00:55:38;;;;;;;15.50;7.75;;;0.70;99.90;;;;;;5016223;28;20133;-69
2022/12/12 00:58:03;;;;;;;14.27;6.95;;;0.70;99.90;;;;;;5003089;28;20086;-69
2022/12/12 01:00:29;;;;;;;13.70;7.28;;;0.70;99.90;;;;;;5019242;28;20529;-69
2022/12/12 01:02:56;;;;;;;13.00;7.40;;;0.70;99.90;;;;;;5025881;28;20046;-68
2022/12/12 01:05:23;;;;;;;15.07;7.78;;;0.70;99.90;;;;;;5015314;28;20665;-69
2022/12/12 01:07:48;;;;;;;12.18;6.35;;;0.70;99.90;;;;;;5023882;28;20081;-68
2022/12/12 01:10:14;;;;;;;11.55;6.47;;;0.70;99.90;;;;;;5068356;28;20038;-69
2022/12/12 01:12:40;;;;;;;12.43;7.07;;;0.70;99.90;;;;;;5047410;28;20497;-68
2022/12/12 01:15:08;;;;;;;13.30;7.28;;;0.80;99.90;;;;;;5042918;28;20053;-68
2022/12/12 01:17:36;;;;;;;11.65;6.90;;;0.80;99.90;;;;;;5013114;28;20062;-69
2022/12/12 01:20:16;;;;;;;13.02;6.97;;;0.80;99.90;;;;;;5049037;28;20058;-68
2022/12/12 01:22:42;;;;;;;14.60;6.65;;;0.80;99.90;;;;;;5071442;28;20045;-69
2022/12/12 01:25:08;;;;;;;12.70;6.70;;;0.80;99.90;;;;;;5015208;28;20041;-69
2022/12/12 01:27:34;;;;;;;12.35;6.93;;;0.70;99.90;;;;;;5013775;28;20105;-69
2022/12/12 01:30:01;;;;;;;13.77;7.22;;;0.70;99.90;;;;;;5014421;28;20417;-69
2022/12/12 01:32:29;;;;;;;10.88;6.65;;;0.70;99.90;;;;;;5013179;28;20073;-69
2022/12/12 01:34:55;;;;;;;12.90;6.90;;;0.70;99.90;;;;;;5016528;28;20053;-69
2022/12/12 01:37:21;;;;;;;11.50;6.90;;;0.80;99.90;;;;;;5013761;28;20042;-69
2022/12/12 01:39:47;;;;;;;11.43;6.38;;;0.80;99.90;;;;;;5014732;28;20057;-69
2022/12/12 01:42:16;;;;;;;14.80;7.45;;;0.80;99.90;;;;;;5012883;28;20106;-69
2022/12/12 01:44:51;;;;;;;11.85;6.53;;;0.80;99.90;;;;;;5009510;28;20562;-69
2022/12/12 01:47:20;;;;;;;14.10;7.10;;;0.80;99.90;;;;;;5010913;28;20053;-69
2022/12/12 01:49:51;;;;;;;11.82;6.70;;;0.80;99.90;;;;;;5052620;28;20618;-69
2022/12/12 01:52:25;;;;;;;11.55;6.45;;;0.80;99.90;;;;;;5014805;28;20073;-69
2022/12/12 01:54:55;;;;;;;11.45;6.53;;;0.80;99.90;;;;;;4993228;28;20050;-69
2022/12/12 01:57:30;;;;;;;11.85;6.97;;;0.70;99.90;;;;;;5025970;28;20443;-69
2022/12/12 01:59:58;;;;;;;12.68;6.82;;;0.70;99.90;;;;;;5082278;28;20037;-69
2022/12/12 02:02:24;;;;;;;11.88;6.93;;;0.70;99.90;;;;;;5009735;28;20054;-69
2022/12/12 02:04:49;;;;;;;12.35;6.90;;;0.70;99.90;;;;;;5009627;28;20061;-69
2022/12/12 02:07:16;;;;;;;11.23;7.00;;;0.70;99.90;;;;;;5026701;28;20050;-69
2022/12/12 02:09:42;;;;;;;12.15;6.80;;;0.70;99.90;;;;;;5035349;28;20083;-69
2022/12/12 02:12:13;;;;;;;14.50;7.20;;;0.70;99.90;;;;;;5035010;28;20059;-69
2022/12/12 02:14:42;;;;;;;12.50;7.18;;;0.60;99.90;;;;;;5025401;28;20074;-69
2022/12/12 02:17:36;;;;;;;12.32;6.53;;;0.60;99.90;;;;;;5014488;28;20048;-69
2022/12/12 02:20:26;;;;;;;12.38;6.93;;;0.60;99.90;;;;;;5001761;28;20050;-69
2022/12/12 02:23:15;;;;;;;12.13;6.45;;;0.60;99.90;;;;;;5001364;28;20050;-69
2022/12/12 02:25:59;;;;;;;10.93;5.85;;;0.60;99.90;;;;;;5062959;28;20099;-68
2022/12/12 02:28:30;;;;;;;11.50;6.93;;;0.60;99.90;;;;;;5096719;28;20041;-69
2022/12/12 02:31:21;;;;;;;10.40;5.78;;;0.60;99.90;;;;;;5055545;28;20057;-69
2022/12/12 02:33:46;;;;;;;10.48;5.47;;;0.60;99.90;;;;;;5038465;28;20050;-69
2022/12/12 02:36:18;;;;;;;14.13;7.05;;;0.60;99.90;;;;;;5033513;28;20051;-69
2022/12/12 02:39:03;;;;;;;11.77;6.80;;;1.50;99.90;;;;;;5032883;28;20050;-69
2022/12/12 02:41:37;;;;;;;12.65;7.47;;;0.60;99.90;;;;;;4993616;28;20124;-69
2022/12/12 02:44:32;;;;;;;11.63;6.40;;;0.70;99.90;;;;;;5037522;28;20045;-69
2022/12/12 02:47:10;;;;;;;11.85;7.43;;;0.60;99.90;;;;;;5014226;28;20075;-69
2022/12/12 02:49:58;;;;;;;11.98;6.70;;;0.60;99.90;;;;;;5012381;28;20085;-69
2022/12/12 02:52:24;;;;;;;14.55;7.75;;;0.60;99.90;;;;;;5015274;28;20088;-69
2022/12/12 02:54:49;;;;;;;13.77;7.63;;;0.50;99.90;;;;;;5020213;28;20414;-69
2022/12/12 02:57:21;;;;;;;11.65;7.13;;;0.60;99.90;;;;;;5009102;28;20883;-69
2022/12/12 02:59:58;;;;;;;12.55;7.03;;;0.60;99.90;;;;;;5070950;28;20050;-69
2022/12/12 03:02:45;;;;;;;12.38;7.20;;;0.60;99.90;;;;;;5011976;28;20057;-69
2022/12/12 03:08:23;;;;;;;14.20;7.22;;;0.60;99.90;;;;;;5037459;28;20110;-69
2022/12/12 03:10:58;;;;;;;12.90;7.28;;;0.60;99.90;;;;;;5037752;28;20048;-69
2022/12/12 03:13:48;;;;;;;12.15;6.32;;;0.60;99.90;;;;;;5030259;28;20136;-69
2022/12/12 03:16:25;;;;;;;10.63;6.22;;;0.60;99.90;;;;;;5003811;28;20086;-69
2022/12/12 03:19:24;;;;;;;10.52;6.13;;;0.60;99.90;;;;;;5013466;28;20304;-69
2022/12/12 03:22:10;;;;;;;10.30;5.68;;;0.60;99.90;;;;;;5111543;28;20923;-69
2022/12/12 03:24:49;;;;;;;11.13;5.90;;;0.60;99.90;;;;;;5082635;28;20058;-68
2022/12/12 03:27:23;;;;;;;11.52;5.97;;;0.60;99.90;;;;;;5097578;28;20039;-68
2022/12/12 03:29:55;;;;;;;10.93;6.18;;;0.50;99.90;;;;;;5005544;28;20042;-69
2022/12/12 03:32:33;;;;;;;10.65;6.65;;;0.50;99.90;;;;;;4983941;28;20055;-69
2022/12/12 03:35:07;;;;;;;9.93;5.90;;;0.50;99.90;;;;;;5010904;28;20050;-69
2022/12/12 03:37:50;;;;;;;11.45;6.80;;;0.50;99.90;;;;;;5013916;28;20050;-69
2022/12/12 03:40:39;;;;;;;12.68;6.55;;;0.60;99.90;;;;;;5011153;28;20483;-69
2022/12/12 03:43:13;;;;;;;11.57;5.88;;;0.60;99.90;;;;;;5014830;28;20486;-69
2022/12/12 03:45:49;;;;;;;9.98;5.70;;;0.60;99.90;;;;;;5006959;28;20096;-69
2022/12/12 03:48:27;;;;;;;11.90;6.50;;;0.60;99.90;;;;;;5000806;28;20050;-69
2022/12/12 03:51:00;;;;;;;12.55;6.13;;;0.70;99.90;;;;;;5006897;28;20079;-69
2022/12/12 03:54:05;;;;;;;10.25;6.25;;;0.70;99.90;;;;;;5014319;28;20071;-69
2022/12/12 03:56:41;;;;;;;10.60;5.38;;;0.70;99.90;;;;;;5016082;28;20107;-69
2022/12/12 03:59:18;;;;;;;8.85;5.03;;;0.60;99.90;;;;;;5017898;28;20041;-68
2022/12/12 04:01:54;;;;;;;11.70;6.03;;;0.60;99.90;;;;;;5015977;28;20052;-69
2022/12/12 04:04:29;;;;;;;10.38;6.05;;;0.60;99.90;;;;;;5010220;28;20042;-69
2022/12/12 04:07:04;;;;;;;10.50;6.32;;;0.50;99.90;;;;;;5010604;28;20447;-68
2022/12/12 04:15:28;;;;;;;9.43;5.50;;;0.40;99.90;;;;;;5048517;28;20053;-69
2022/12/12 04:18:32;;;;;;;11.20;5.63;;;0.40;99.90;;;;;;5018050;28;20050;-69
2022/12/12 04:24:22;;;;;;;10.90;6.55;;;0.40;99.90;;;;;;4998155;28;20058;-69
2022/12/12 04:27:03;;;;;;;10.38;5.72;;;0.40;99.90;;;;;;5048399;28;20100;-69
2022/12/12 04:30:01;;;;;;;11.27;6.38;;;0.40;99.90;;;;;;5050306;28;20078;-68
2022/12/12 04:33:00;;;;;;;11.93;6.03;;;0.40;99.90;;;;;;5014525;28;20062;-68
2022/12/12 04:35:37;;;;;;;12.40;6.22;;;0.30;99.90;;;;;;5035160;28;20046;-68
2022/12/12 04:38:12;;;;;;;10.18;6.43;;;0.30;99.90;;;;;;5017696;28;20051;-68
2022/12/12 04:40:42;;;;;;;9.38;5.15;;;1.00;99.90;;;;;;5015268;28;20106;-69
2022/12/12 04:43:19;;;;;;;12.45;6.63;;;0.30;99.90;;;;;;5062563;28;20096;-69
2022/12/12 04:45:56;;;;;;;11.27;6.43;;;0.30;99.90;;;;;;5015908;28;20097;-68
2022/12/12 04:48:32;;;;;;;12.23;6.72;;;0.30;99.90;;;;;;5016346;28;20072;-69
2022/12/12 04:50:59;;;;;;;;;;;0.30;99.90;;;;;;5018435;28;20046;-66
2022/12/12 04:53:27;;;;;;;;;;;0.60;99.90;;;;;;5014318;28;19921;-66
2022/12/12 04:55:56;;;;;;;10.55;5.95;;;0.30;99.90;;;;;;5056724;28;19921;-67
2022/12/12 04:58:23;;;;;;;10.32;5.70;;;0.30;99.90;;;;;;5011228;28;20089;-66
2022/12/12 05:01:02;;;;;;;12.57;6.32;;;0.20;99.90;;;;;;5051012;28;20128;-67
2022/12/12 05:03:50;;;;;;;12.85;7.20;;;0.20;99.90;;;;;;5016185;28;20042;-66
2022/12/12 05:06:21;;;;;;;12.05;6.60;;;0.20;99.90;;;;;;5041881;28;20039;-65
2022/12/12 05:08:49;;;;;;;11.95;6.50;;;0.20;99.90;;;;;;5047231;28;20424;-66
2022/12/12 05:11:20;;;;;;;11.23;6.47;;;0.30;99.90;;;;;;5015287;28;20084;-68
2022/12/12 05:13:47;;;;;;;12.18;6.40;;;0.20;99.90;;;;;;5071114;28;20043;-66
2022/12/12 05:16:22;;;;;;;10.75;5.90;;;0.20;99.90;;;;;;5013528;28;20057;-65
2022/12/12 05:18:48;;;;;;;10.82;5.55;;;0.20;99.90;;;;;;5010216;28;20107;-66
2022/12/12 05:21:14;;;;;;;9.90;6.18;;;0.40;99.90;;;;;;5010007;28;20038;-66
2022/12/12 05:23:40;;;;;;;13.35;7.20;;;0.20;99.90;;;;;;5020776;28;20046;-66
2022/12/12 05:26:08;;;;;;;11.82;6.32;;;0.20;99.90;;;;;;5108564;28;20099;-66
2022/12/12 05:28:35;;;;;;;10.55;5.57;;;0.20;99.90;;;;;;5119113;28;20407;-67
2022/12/12 05:31:00;;;;;;;10.95;6.13;;;0.20;99.90;;;;;;5024518;28;20133;-66
2022/12/12 05:33:26;;;;;;;10.90;5.57;;;0.20;99.90;;;;;;5032618;28;20616;-65
2022/12/12 05:35:52;;;;;;;11.43;5.70;;;0.20;99.90;;;;;;5053833;28;20057;-66
2022/12/12 05:38:18;;;;;;;9.63;5.57;;;0.30;99.90;;;;;;5120712;28;20039;-66
2022/12/12 05:40:43;;;;;;;11.48;6.10;;;0.20;99.90;;;;;;5082351;28;20047;-66
2022/12/12 05:43:09;;;;;;;12.43;6.40;;;0.20;99.90;;;;;;5030941;28;20065;-66
2022/12/12 05:45:35;;;;;;;10.43;5.43;;;0.30;99.90;;;;;;5013154;28;20049;-66
2022/12/12 05:48:00;;;;;;;12.93;6.18;;;0.30;99.90;;;;;;5056792;28;20079;-66
2022/12/12 05:50:26;;;;;;;9.90;5.45;;;0.40;99.90;;;;;;5025292;28;20075;-66
2022/12/12 05:52:52;;;;;;;9.48;5.63;;;0.50;99.90;;;;;;5015248;28;20049;-65
2022/12/12 05:55:17;;;;;;;9.70;5.60;;;0.40;99.90;;;;;;5042095;28;20146;-65
2022/12/12 05:57:43;;;;;;;9.95;5.57;;;0.50;99.90;;;;;;5012641;28;20049;-66
2022/12/12 06:00:09;;;;;;;12.70;6.15;;;0.40;99.90;;;;;;5016651;28;20042;-66
2022/12/12 06:02:35;;;;;;;8.48;5.65;;;0.30;99.90;;;;;;5061181;28;20069;-66
2022/12/12 06:05:01;;;;;;;8.35;5.25;;;0.40;99.90;;;;;;5057039;28;20042;-66
2022/12/12 06:07:27;;;;;;;9.68;5.38;;;0.50;99.90;;;;;;5065804;28;20035;-66
2022/12/12 06:09:54;;;;;;;11.93;5.90;;;0.30;99.90;;;;;;5045433;28;20049;-66
2022/12/12 06:12:20;;;;;;;11.40;5.60;;;0.30;99.90;;;;;;5015143;28;20050;-66
2022/12/12 06:14:46;;;;;;;9.93;6.28;;;0.30;99.90;;;;;;5025173;28;20061;-66
2022/12/12 06:17:12;;;;;;;11.65;6.32;;;0.20;99.90;;;;;;5081629;28;20051;-66
2022/12/12 06:19:37;;;;;;;10.30;5.85;;;0.20;99.90;;;;;;5056686;28;20042;-66
2022/12/12 06:22:03;;;;;;;9.20;5.47;;;0.20;99.90;;;;;;5119004;28;20051;-66
2022/12/12 06:24:29;;;;;;;11.80;5.90;;;0.20;99.90;;;;;;5022206;28;20048;-66
2022/12/12 06:26:55;;;;;;;9.95;5.82;;;0.20;99.90;;;;;;5032383;28;20073;-66
2022/12/12 06:29:20;;;;;;;11.85;6.63;;;0.20;99.90;;;;;;5026462;28;20115;-66
2022/12/12 06:31:46;;;;;;;11.77;6.38;;;0.30;99.90;;;;;;5059719;28;20046;-66
2022/12/12 06:34:12;;;;;;;13.50;7.22;;;0.20;99.90;;;;;;5007124;28;20121;-66
2022/12/12 06:36:37;;;;;;;10.98;6.57;;;0.20;99.90;;;;;;5055086;28;20043;-66
2022/12/12 06:39:03;;;;;;;13.38;6.80;;;0.20;99.90;;;;;;5083168;28;20046;-66
2022/12/12 06:41:30;;;;;;;12.05;6.60;;;0.20;99.90;;;;;;5014329;28;20219;-66
2022/12/12 06:43:56;;;;;;;12.68;7.45;;;0.20;99.90;;;;;;5013610;28;20095;-66
2022/12/12 06:46:25;;;;;;;12.70;6.72;;;0.20;99.90;;;;;;5071242;28;20058;-65
2022/12/12 06:48:52;;;;;;;10.88;6.25;;;0.20;99.90;;;;;;5040509;28;20053;-66
2022/12/12 06:51:20;;;;;;;11.48;6.93;;;0.20;99.90;;;;;;5015809;28;20053;-66
2022/12/12 06:53:47;;;;;;;14.25;7.40;;;0.20;99.90;;;;;;5014770;28;20050;-66
2022/12/12 06:56:18;;;;;;;15.05;7.10;;;0.20;99.90;;;;;;5069242;28;20049;-66
2022/12/12 06:58:44;;;;;;;14.35;7.70;;;0.20;99.90;;;;;;5114784;28;20135;-66
2022/12/12 07:01:11;;;;;;;13.50;7.10;;;0.30;99.90;;;;;;5030687;28;20038;-66
2022/12/12 07:03:38;;;;;;;12.88;7.47;;;0.30;99.90;;;;;;5014109;28;20054;-65
2022/12/12 07:06:04;;;;;;;14.82;7.25;;;0.20;99.90;;;;;;5025049;28;20087;-66
2022/12/12 07:08:29;;;;;;;12.65;7.10;;;0.30;99.90;;;;;;5037682;28;20140;-65
2022/12/12 07:11:01;;;;;;;14.68;8.18;;;0.20;99.90;;;;;;5013049;28;20117;-65
2022/12/12 07:13:27;;;;;;;12.63;7.70;;;0.20;99.90;;;;;;5042565;28;20023;-65
2022/12/12 07:15:54;;;;;;;14.30;8.18;;;0.10;99.90;;;;;;5013835;28;20074;-65
2022/12/12 07:18:20;;;;;;;13.82;7.97;;;0.10;99.90;;;;;;5034503;28;20710;-65
2022/12/12 07:20:46;;;;;;;13.10;7.55;;;0.00;99.90;;;;;;5015148;28;20082;-65
2022/12/12 07:23:12;;;;;;;10.75;6.80;;;0.00;99.90;;;;;;5013117;28;20054;-65
2022/12/12 07:25:43;;;;;;;14.15;8.10;;;-0.10;99.90;;;;;;5014000;28;20042;-65
2022/12/12 07:28:10;;;;;;;12.52;7.70;;;-0.20;99.90;;;;;;5037646;28;20228;-65
2022/12/12 07:30:41;;;;;;;12.75;7.55;;;-0.20;99.90;;;;;;5048934;28;20137;-65
2022/12/12 07:33:07;;;;;;;13.93;7.65;;;-0.20;99.90;;;;;;5019457;28;20091;-65
2022/12/12 07:35:34;;;;;;;10.73;6.38;;;-0.30;99.90;;;;;;5026183;28;20067;-65
2022/12/12 07:37:59;;;;;;;13.15;7.93;;;-0.30;99.90;;;;;;5080201;28;20075;-65
2022/12/12 07:40:25;;;;;;;15.05;8.43;;;-0.30;99.90;;;;;;5052203;28;20046;-65
2022/12/12 07:42:51;;;;;;;15.73;7.78;;;-0.30;99.90;;;;;;5015300;28;20187;-65
2022/12/12 07:45:17;;;;;;;15.80;8.38;;;-0.40;99.90;;;;;;4992135;28;20038;-65
2022/12/12 07:47:43;;;;;;;15.00;7.95;;;-0.40;99.90;;;;;;5011249;28;20090;-65
2022/12/12 07:50:09;;;;;;;14.50;7.28;;;-0.40;99.90;;;;;;5013421;28;20048;-65
2022/12/12 07:52:35;;;;;;;16.13;8.85;;;-0.40;99.90;;;;;;5078476;28;20036;-66
2022/12/12 07:55:01;;;;;;;14.73;8.40;;;-0.50;99.90;;;;;;5034767;28;20149;-65
2022/12/12 07:57:28;;;;;;;13.38;7.82;;;-0.20;99.90;;;;;;5011744;28;20190;-66
2022/12/12 07:59:54;;;;;;;13.80;8.05;;;-0.50;99.90;;;;;;5015334;28;20451;-66
2022/12/12 08:02:19;;;;;;;12.90;6.45;;;-0.60;99.90;;;;;;5012266;28;20045;-66
2022/12/12 08:04:45;;;;;;;12.80;7.25;;;-0.60;99.90;;;;;;5014600;28;20044;-65
2022/12/12 08:07:11;;;;;;;12.43;6.40;;;-0.60;99.90;;;;;;5013410;28;20045;-65
2022/12/12 08:09:37;;;;;;;14.70;8.07;;;-0.60;99.90;;;;;;5060391;28;20054;-66
2022/12/12 08:12:03;;;;;;;14.00;7.85;;;-0.60;99.90;;;;;;4996919;28;20038;-65
2022/12/12 08:14:29;;;;;;;16.50;8.13;;;-0.60;99.90;;;;;;5053871;28;20040;-66
2022/12/12 08:16:55;;;;;;;20.30;10.10;;;-0.70;99.90;;;;;;5028693;28;20045;-68
2022/12/12 08:19:20;;;;;;;12.77;7.45;;;-0.70;99.90;;;;;;4999771;28;20089;-66
2022/12/12 08:21:46;;;;;;;10.68;6.70;;;-0.60;99.90;;;;;;5003118;28;20038;-66
2022/12/12 08:24:14;;;;;;;12.88;6.60;;;-0.70;99.90;;;;;;4996384;28;20057;-66
2022/12/12 08:26:42;;;;;;;15.00;8.35;;;-0.70;99.90;;;;;;5002313;28;20045;-66
2022/12/12 08:29:08;;;;;;;11.10;6.38;;;-0.80;99.90;;;;;;5009161;28;20042;-66
2022/12/12 08:31:35;;;;;;;11.82;6.72;;;-0.80;99.90;;;;;;4996551;28;20567;-66
2022/12/12 08:34:01;;;;;;;11.15;6.32;;;-0.80;99.90;;;;;;4996308;28;20071;-66
2022/12/12 08:36:29;;;;;;;12.75;6.90;;;-0.80;99.90;;;;;;4993374;28;20072;-66
2022/12/12 08:38:57;;;;;;;11.25;6.38;;;-0.70;99.90;;;;;;5007241;28;20080;-66
2022/12/12 08:41:24;;;;;;;12.65;7.25;;;-0.70;99.90;;;;;;5008769;28;20600;-67
2022/12/12 08:43:50;;;;;;;12.18;6.50;;;-0.70;99.90;;;;;;5009967;28;20064;-66
2022/12/12 08:46:20;;;;;;;16.60;8.15;;;-0.60;99.90;;;;;;5012707;28;20337;-66
2022/12/12 08:48:47;;;;;;;15.00;9.10;;;-0.50;99.90;;;;;;4996778;28;20047;-66
2022/12/12 08:51:13;;;;;;;15.90;8.13;;;-0.50;99.90;;;;;;5001007;28;20047;-65
2022/12/12 08:53:39;;;;;;;24.58;12.85;;;-0.50;99.90;;;;;;5005598;28;20081;-66
2022/12/12 08:56:05;;;;;;;18.40;10.57;;;-0.30;99.90;;;;;;5013721;28;20300;-66
2022/12/12 08:58:31;;;;;;;12.63;7.28;;;-0.50;99.90;;;;;;5004069;28;20092;-65
2022/12/12 09:00:56;;;;;;;15.27;8.15;;;-0.40;99.90;;;;;;5005762;28;20105;-66
2022/12/12 09:03:22;;;;;;;13.32;7.32;;;-0.50;99.90;;;;;;5006761;28;20423;-66
2022/12/12 09:05:48;;;;;;;14.27;7.47;;;-0.50;99.90;;;;;;5007187;28;20236;-66
2022/12/12 09:08:14;;;;;;;13.00;8.20;;;-0.50;99.90;;;;;;5012112;28;20576;-66
2022/12/12 09:10:41;;;;;;;12.30;7.18;;;-0.40;99.90;;;;;;5002755;28;20071;-67
2022/12/12 09:13:07;;;;;;;15.38;8.15;;;-0.30;99.90;;;;;;5013433;28;20346;-66
2022/12/12 09:15:37;;;;;;;12.60;7.28;;;-0.30;99.90;;;;;;5106934;28;20085;-66
2022/12/12 09:18:03;;;;;;;15.95;7.88;;;-0.30;99.90;;;;;;5119655;28;20582;-66
2022/12/12 09:20:29;;;;;;;13.60;7.95;;;-0.30;99.90;;;;;;5119765;28;20043;-65
2022/12/12 09:22:55;;;;;;;13.77;7.88;;;-0.30;99.90;;;;;;5117501;28;20051;-66
2022/12/12 09:25:20;;;;;;;18.13;9.25;;;-0.30;99.90;;;;;;5121267;28;20043;-66
2022/12/12 09:27:47;;;;;;;16.40;8.80;;;-0.10;99.90;;;;;;5118104;28;20116;-66
2022/12/12 09:30:13;;;;;;;20.92;9.52;;;-0.30;99.90;;;;;;5120205;28;20115;-66
2022/12/12 09:32:38;;;;;;;15.95;9.07;;;-0.20;99.90;;;;;;5118487;28;20058;-66
2022/12/12 09:35:04;;;;;;;16.38;9.38;;;-0.10;99.90;;;;;;5120053;28;20099;-66
2022/12/12 09:37:33;;;;;;;17.13;9.18;;;0.00;99.90;;;;;;5120200;28;20165;-66
2022/12/12 09:39:59;;;;;;;17.13;9.10;;;0.00;99.90;;;;;;5118603;27;20040;-66
2022/12/12 09:42:30;;;;;;;16.63;9.40;;;0.10;99.90;;;;;;5120669;28;20118;-66
2022/12/12 09:45:03;;;;;;;15.98;9.52;;;0.20;99.90;;;;;;5118137;28;20489;-66
2022/12/12 09:47:43;;;;;;;16.20;8.95;;;0.30;99.90;;;;;;5120250;28;20095;-66
2022/12/12 09:50:29;;;;;;;17.58;9.07;;;0.40;99.90;;;;;;5118854;28;20047;-66
2022/12/12 09:53:01;;;;;;;17.47;9.57;;;0.50;99.90;;;;;;5118311;28;20050;-66
2022/12/12 09:55:48;;;;;;;16.70;8.75;;;0.50;99.90;;;;;;5120397;28;20110;-66
2022/12/12 09:58:43;;;;;;;;;;;0.60;99.90;;;;;;5117191;28;20047;-66
2022/12/12 10:01:09;;;;;;;18.15;8.93;;;0.60;99.90;;;;;;5100499;28;20406;-66
2022/12/12 10:04:13;;;;;;;16.75;9.93;;;0.70;99.90;;;;;;5119839;28;20039;-66
2022/12/12 10:06:54;;;;;;;21.85;9.48;;;0.70;99.90;;;;;;5116733;28;20040;-66
2022/12/12 10:09:41;;;;;;;17.98;9.82;;;0.70;99.90;;;;;;5093020;28;20053;-66
2022/12/12 10:12:13;;;;;;;18.85;10.93;;;0.70;99.90;;;;;;5015225;28;20065;-66
2022/12/12 10:14:47;;;;;;;18.98;10.35;;;0.80;99.90;;;;;;5069308;28;20036;-66
2022/12/12 10:17:39;;;;;;;18.27;10.35;;;1.40;99.90;;;;;;5118578;28;20047;-66
2022/12/12 10:20:14;;;;;;;19.60;10.90;;;0.90;99.90;;;;;;5118510;28;20051;-66
2022/12/12 10:22:49;;;;;;;17.98;9.95;;;1.00;99.90;;;;;;5116828;28;20047;-66
2022/12/12 10:25:46;;;;;;;19.52;9.70;;;1.00;99.90;;;;;;5119884;28;20048;-66
2022/12/12 10:28:17;;;;;;;20.40;11.30;;;1.10;99.90;;;;;;5099424;28;20771;-66
2022/12/12 10:30:57;;;;;;;17.90;10.05;;;1.20;99.90;;;;;;5118361;28;20352;-66
2022/12/12 10:33:36;;;;;;;19.67;10.88;;;1.20;99.90;;;;;;5119043;28;20051;-66
2022/12/12 10:36:32;;;;;;;22.42;11.65;;;1.20;99.90;;;;;;5117161;28;20056;-66
2022/12/12 10:39:16;;;;;;;15.43;9.73;;;1.20;99.90;;;;;;5118868;28;20751;-66
2022/12/12 10:41:47;;;;;;;18.30;10.32;;;1.30;99.90;;;;;;5118372;28;20103;-66
2022/12/12 10:44:16;;;;;;;18.65;10.52;;;1.40;99.90;;;;;;5117418;28;20043;-66
2022/12/12 10:47:02;;;;;;;21.13;11.10;;;1.40;99.90;;;;;;5119462;28;20146;-66
2022/12/12 10:49:29;;;;;;;21.52;10.55;;;1.50;99.90;;;;;;5116760;28;20043;-66
2022/12/12 10:51:56;;;;;;;22.70;10.98;;;1.50;99.90;;;;;;5118966;28;20051;-66
2022/12/12 10:54:25;;;;;;;18.27;10.57;;;1.50;99.90;;;;;;5117729;28;20097;-65
2022/12/12 10:57:12;;;;;;;21.38;12.10;;;1.60;99.90;;;;;;5117781;28;20062;-66
2022/12/12 10:59:44;;;;;;;17.30;9.57;;;1.60;99.90;;;;;;5118093;28;20069;-66
2022/12/12 11:02:39;;;;;;;19.60;10.95;;;1.60;99.90;;;;;;5114236;28;20075;-66
2022/12/12 11:05:04;;;;;;;18.25;10.35;;;1.60;99.90;;;;;;5118479;28;20048;-66
2022/12/12 11:07:35;;;;;;;18.60;10.98;;;1.50;99.90;;;;;;5116937;28;20093;-66
2022/12/12 11:10:01;;;;;;;20.05;11.20;;;1.50;99.90;;;;;;5116532;28;20053;-66
2022/12/12 11:12:34;;;;;;;18.63;10.45;;;1.70;99.90;;;;;;5119252;28;20043;-66
2022/12/12 11:15:14;;;;;;;19.85;10.55;;;1.70;99.90;;;;;;5085634;28;20047;-66
2022/12/12 11:17:40;;;;;;;21.30;11.40;;;1.50;99.90;;;;;;5095343;28;20055;-66
2022/12/12 11:20:16;;;;;;;21.10;10.57;;;1.60;99.90;;;;;;5018216;28;20406;-66
2022/12/12 11:22:42;;;;;;;19.75;11.13;;;1.60;99.90;;;;;;5012737;28;20620;-66
2022/12/12 11:25:23;;;;;;;18.30;10.27;;;1.60;99.90;;;;;;5014209;28;20134;-67
2022/12/12 11:27:49;;;;;;;21.45;10.98;;;1.60;99.90;;;;;;5012932;28;20057;-67
2022/12/12 11:30:35;;;;;;;19.85;10.35;;;1.70;99.90;;;;;;5014653;28;20062;-67
2022/12/12 11:33:03;;;;;;;17.17;9.52;;;1.70;99.90;;;;;;5012191;28;20079;-67
2022/12/12 11:35:37;;;;;;;18.80;10.10;;;1.70;99.90;;;;;;5012733;28;20702;-67
2022/12/12 11:38:16;;;;;;;16.05;9.15;;;1.70;99.90;;;;;;4994342;28;20035;-67
2022/12/12 11:40:43;;;;;;;16.80;8.80;;;1.70;99.90;;;;;;5010923;28;20114;-67
2022/12/12 11:43:35;;;;;;;18.00;9.80;;;1.80;99.90;;;;;;5013957;28;20049;-67
2022/12/12 11:46:07;;;;;;;19.10;9.90;;;1.80;99.90;;;;;;5012868;28;20049;-67
2022/12/12 11:48:39;;;;;;;14.07;7.90;;;1.80;99.90;;;;;;5013227;28;20061;-67
2022/12/12 11:51:05;;;;;;;16.55;9.32;;;1.80;99.90;;;;;;5014822;28;20102;-68
2022/12/12 11:53:35;;;;;;;15.02;9.02;;;1.80;99.90;;;;;;5013050;28;20042;-67
2022/12/12 11:56:11;;;;;;;14.40;8.82;;;1.80;99.90;;;;;;5014501;28;20050;-67
2022/12/12 11:58:37;;;;;;;19.52;9.20;;;1.90;99.90;;;;;;5013550;28;20149;-67
2022/12/12 12:01:25;;;;;;;13.95;7.90;;;2.70;99.90;;;;;;5011847;28;20570;-67
2022/12/12 12:04:06;;;;;;;16.27;8.57;;;2.00;99.90;;;;;;5014774;28;20045;-67
2022/12/12 12:06:37;;;;;;;13.68;8.05;;;1.90;99.90;;;;;;5011316;28;20065;-67
2022/12/12 12:09:22;;;;;;;13.27;7.63;;;1.90;99.90;;;;;;5027257;28;20030;-67
2022/12/12 12:12:00;;;;;;;13.73;8.43;;;1.90;99.90;;;;;;5116287;28;20458;-67
2022/12/12 12:14:41;;;;;;;13.18;7.57;;;2.00;99.90;;;;;;5023997;28;20058;-67
2022/12/12 12:17:25;;;;;;;12.15;6.97;;;1.90;99.90;;;;;;5018293;28;20054;-67
2022/12/12 12:20:17;;;;;;;10.98;6.60;;;2.00;99.90;;;;;;5016364;28;20049;-66
2022/12/12 12:23:25;;;;;;;13.48;7.03;;;2.00;99.90;;;;;;5016698;28;20074;-67
2022/12/12 12:26:07;;;;;;;12.02;6.20;;;2.00;99.90;;;;;;5016448;28;20053;-67
2022/12/12 12:28:36;;;;;;;13.10;6.90;;;1.90;99.90;;;;;;5016930;28;20074;-67
2022/12/12 12:31:27;;;;;;;13.70;7.15;;;1.90;99.90;;;;;;5034226;28;20058;-67
2022/12/12 12:34:07;;;;;;;10.18;6.78;;;1.90;99.90;;;;;;5038108;28;20053;-67
2022/12/12 12:36:45;;;;;;;11.10;6.70;;;1.90;99.90;;;;;;5035685;28;20045;-67
2022/12/12 12:39:18;;;;;;;11.10;6.35;;;2.00;99.90;;;;;;5037212;28;20109;-67
2022/12/12 12:41:57;;;;;;;9.75;6.03;;;2.00;99.90;;;;;;5037313;28;20457;-67
2022/12/12 12:44:41;;;;;;;11.30;6.32;;;2.00;99.90;;;;;;5035648;28;20045;-67
2022/12/12 12:47:25;;;;;;;10.30;6.55;;;2.00;99.90;;;;;;5037706;28;20049;-67
2022/12/12 12:50:04;;;;;;;10.32;5.93;;;2.00;99.90;;;;;;5035907;28;20049;-67
2022/12/12 12:52:45;;;;;;;10.40;6.40;;;2.00;99.90;;;;;;5036304;28;20109;-67
2022/12/12 12:55:16;;;;;;;11.38;5.53;;;2.00;99.90;;;;;;5037717;28;20045;-67
2022/12/12 12:57:45;;;;;;;10.90;6.43;;;2.00;99.90;;;;;;5035172;28;20041;-67
2022/12/12 13:00:20;;;;;;;11.05;5.85;;;2.00;99.90;;;;;;5037403;28;20077;-67
2022/12/12 13:03:00;;;;;;;13.07;6.38;;;2.00;99.90;;;;;;5035604;28;20057;-67
2022/12/12 13:05:38;;;;;;;11.48;5.93;;;1.90;99.90;;;;;;5035878;28;20076;-67
2022/12/12 13:08:23;;;;;;;9.57;5.68;;;1.90;99.90;;;;;;5037621;28;20052;-67
2022/12/12 13:10:56;;;;;;;9.77;6.20;;;1.90;99.90;;;;;;5106792;28;20079;-67
2022/12/12 13:13:29;;;;;;;9.77;5.90;;;1.90;99.90;;;;;;5120506;28;20035;-67
2022/12/12 13:16:03;;;;;;;13.00;6.22;;;1.90;99.90;;;;;;4997162;28;20050;-67
2022/12/12 13:18:31;;;;;;;9.68;6.13;;;1.90;99.90;;;;;;4995805;28;20054;-67
2022/12/12 13:21:06;;;;;;;9.50;5.53;;;1.90;99.90;;;;;;4998016;28;20056;-66
2022/12/12 13:23:49;;;;;;;10.25;5.60;;;1.90;99.90;;;;;;4995414;28;20100;-66